Ashburnham, Massachusetts
Current Conditions -  °F | °C
As of 10:52 AM on Thursday 29 Jan 2015 (Local Time) from KFIT Reporting Station
Clear Clear  
Wind Chill: 18°   Ceiling: Unl
Heat Index: 24°   Visibility: 9mi
Dew Point:   Wind: 5mph
Humidity: 44%   Direction: 150°SSE
Pressure: 30.3"   Gusts: NA
Location:  42.64°N, 71.91°W
Report Text: KFIT 291552Z AUTO 15004KT 9SM CLR M04/M15 A3030 RMK AO2 SLP268 T10441150
Loading
Personal Weather Stations






























Interactive Weather Map New forecast layout! Learn more

10-Day Weather Forecast

Advertisements
Track Severe Weather on mobile